sensor_id;sensor_type;location;lat;lon;timestamp;P1;durP1;ratioP1;P2;durP2;ratioP2
13171;SDS011;6651;53.200;10.432;2024-02-26T00:00:37;2.00;;;1.80;;
13171;SDS011;6651;53.200;10.432;2024-02-26T00:03:03;2.15;;;1.90;;
13171;SDS011;6651;53.200;10.432;2024-02-26T00:05:29;2.38;;;1.83;;
13171;SDS011;6651;53.200;10.432;2024-02-26T00:07:56;1.85;;;1.73;;
13171;SDS011;6651;53.200;10.432;2024-02-26T00:10:22;2.17;;;1.90;;
13171;SDS011;6651;53.200;10.432;2024-02-26T00:12:49;3.30;;;2.03;;
13171;SDS011;6651;53.200;10.432;2024-02-26T00:15:15;2.13;;;1.92;;
13171;SDS011;6651;53.200;10.432;2024-02-26T00:17:41;1.90;;;1.80;;
13171;SDS011;6651;53.200;10.432;2024-02-26T00:20:07;3.80;;;2.08;;
13171;SDS011;6651;53.200;10.432;2024-02-26T00:22:34;2.35;;;2.05;;
13171;SDS011;6651;53.200;10.432;2024-02-26T00:25:00;2.15;;;1.80;;
13171;SDS011;6651;53.200;10.432;2024-02-26T00:27:26;2.08;;;1.80;;
13171;SDS011;6651;53.200;10.432;2024-02-26T00:29:52;2.20;;;2.00;;
13171;SDS011;6651;53.200;10.432;2024-02-26T00:32:18;3.10;;;1.90;;
13171;SDS011;6651;53.200;10.432;2024-02-26T00:34:44;2.00;;;1.80;;
13171;SDS011;6651;53.200;10.432;2024-02-26T00:37:10;2.33;;;1.65;;
13171;SDS011;6651;53.200;10.432;2024-02-26T00:39:36;2.35;;;1.80;;
13171;SDS011;6651;53.200;10.432;2024-02-26T00:42:02;3.05;;;1.98;;
13171;SDS011;6651;53.200;10.432;2024-02-26T00:44:28;1.80;;;1.70;;
13171;SDS011;6651;53.200;10.432;2024-02-26T00:46:54;2.85;;;2.05;;
13171;SDS011;6651;53.200;10.432;2024-02-26T00:49:20;1.70;;;1.60;;
13171;SDS011;6651;53.200;10.432;2024-02-26T00:51:46;2.10;;;1.70;;
13171;SDS011;6651;53.200;10.432;2024-02-26T00:54:12;2.13;;;1.80;;
13171;SDS011;6651;53.200;10.432;2024-02-26T00:56:38;1.83;;;1.70;;
13171;SDS011;6651;53.200;10.432;2024-02-26T00:59:04;1.80;;;1.70;;
13171;SDS011;6651;53.200;10.432;2024-02-26T01:01:31;1.88;;;1.77;;
13171;SDS011;6651;53.200;10.432;2024-02-26T01:03:57;2.00;;;1.80;;
13171;SDS011;6651;53.200;10.432;2024-02-26T01:06:23;2.47;;;1.85;;
13171;SDS011;6651;53.200;10.432;2024-02-26T01:08:49;2.00;;;1.80;;
13171;SDS011;6651;53.200;10.432;2024-02-26T01:11:15;2.17;;;1.70;;
13171;SDS011;6651;53.200;10.432;2024-02-26T01:13:41;2.10;;;1.90;;
13171;SDS011;6651;53.200;10.432;2024-02-26T01:16:07;2.15;;;1.80;;
13171;SDS011;6651;53.200;10.432;2024-02-26T01:18:33;2.95;;;1.90;;
13171;SDS011;6651;53.200;10.432;2024-02-26T01:20:59;2.10;;;1.90;;
13171;SDS011;6651;53.200;10.432;2024-02-26T01:23:25;2.22;;;2.00;;
13171;SDS011;6651;53.200;10.432;2024-02-26T01:25:51;2.88;;;2.00;;
13171;SDS011;6651;53.200;10.432;2024-02-26T01:28:17;2.25;;;1.98;;
13171;SDS011;6651;53.200;10.432;2024-02-26T01:30:43;2.65;;;2.10;;
13171;SDS011;6651;53.200;10.432;2024-02-26T01:33:09;3.30;;;1.92;;
13171;SDS011;6651;53.200;10.432;2024-02-26T01:35:35;1.77;;;1.67;;
13171;SDS011;6651;53.200;10.432;2024-02-26T01:38:01;2.80;;;2.08;;
13171;SDS011;6651;53.200;10.432;2024-02-26T01:40:27;1.90;;;1.70;;
13171;SDS011;6651;53.200;10.432;2024-02-26T01:42:54;2.63;;;1.75;;
13171;SDS011;6651;53.200;10.432;2024-02-26T01:45:20;2.00;;;1.85;;
13171;SDS011;6651;53.200;10.432;2024-02-26T01:47:50;2.03;;;1.90;;
13171;SDS011;6651;53.200;10.432;2024-02-26T01:50:17;3.47;;;2.20;;
13171;SDS011;6651;53.200;10.432;2024-02-26T01:52:44;2.60;;;2.28;;
13171;SDS011;6651;53.200;10.432;2024-02-26T01:55:11;2.53;;;2.33;;
13171;SDS011;6651;53.200;10.432;2024-02-26T01:57:39;3.45;;;2.60;;
13171;SDS011;6651;53.200;10.432;2024-02-26T02:00:05;3.25;;;2.80;;
13171;SDS011;6651;53.200;10.432;2024-02-26T02:02:33;5.22;;;3.10;;
13171;SDS011;6651;53.200;10.432;2024-02-26T02:04:59;4.03;;;2.90;;
13171;SDS011;6651;53.200;10.432;2024-02-26T02:07:25;6.93;;;3.38;;
13171;SDS011;6651;53.200;10.432;2024-02-26T02:09:51;4.60;;;3.08;;
13171;SDS011;6651;53.200;10.432;2024-02-26T02:12:18;3.65;;;2.88;;
13171;SDS011;6651;53.200;10.432;2024-02-26T02:14:44;6.18;;;3.40;;
13171;SDS011;6651;53.200;10.432;2024-02-26T02:17:10;5.65;;;2.90;;
13171;SDS011;6651;53.200;10.432;2024-02-26T02:19:36;4.13;;;3.22;;
13171;SDS011;6651;53.200;10.432;2024-02-26T02:22:02;4.68;;;3.13;;
13171;SDS011;6651;53.200;10.432;2024-02-26T02:24:28;4.53;;;3.30;;
13171;SDS011;6651;53.200;10.432;2024-02-26T02:26:55;3.92;;;3.08;;
13171;SDS011;6651;53.200;10.432;2024-02-26T02:29:21;4.47;;;3.53;;
13171;SDS011;6651;53.200;10.432;2024-02-26T02:31:47;4.85;;;3.60;;
13171;SDS011;6651;53.200;10.432;2024-02-26T02:34:13;5.50;;;3.50;;
13171;SDS011;6651;53.200;10.432;2024-02-26T02:36:51;4.60;;;3.42;;
13171;SDS011;6651;53.200;10.432;2024-02-26T02:39:17;4.93;;;3.63;;
13171;SDS011;6651;53.200;10.432;2024-02-26T02:41:44;3.60;;;3.08;;
13171;SDS011;6651;53.200;10.432;2024-02-26T02:44:10;4.40;;;3.30;;
13171;SDS011;6651;53.200;10.432;2024-02-26T02:46:36;6.70;;;3.30;;
13171;SDS011;6651;53.200;10.432;2024-02-26T02:49:02;4.88;;;3.55;;
13171;SDS011;6651;53.200;10.432;2024-02-26T02:51:28;5.93;;;3.40;;
13171;SDS011;6651;53.200;10.432;2024-02-26T02:53:54;4.95;;;3.47;;
13171;SDS011;6651;53.200;10.432;2024-02-26T02:56:20;5.75;;;3.00;;
13171;SDS011;6651;53.200;10.432;2024-02-26T02:58:46;4.18;;;3.17;;
13171;SDS011;6651;53.200;10.432;2024-02-26T03:01:13;3.70;;;2.90;;
13171;SDS011;6651;53.200;10.432;2024-02-26T03:03:39;3.50;;;2.47;;
13171;SDS011;6651;53.200;10.432;2024-02-26T03:06:05;2.78;;;2.20;;
13171;SDS011;6651;53.200;10.432;2024-02-26T03:08:31;2.30;;;2.10;;
13171;SDS011;6651;53.200;10.432;2024-02-26T03:10:58;3.50;;;2.13;;
13171;SDS011;6651;53.200;10.432;2024-02-26T03:13:24;2.47;;;2.25;;
13171;SDS011;6651;53.200;10.432;2024-02-26T03:15:50;2.63;;;2.13;;
13171;SDS011;6651;53.200;10.432;2024-02-26T03:18:16;2.38;;;2.10;;
13171;SDS011;6651;53.200;10.432;2024-02-26T03:20:42;2.10;;;1.90;;
13171;SDS011;6651;53.200;10.432;2024-02-26T03:23:08;2.78;;;1.92;;
13171;SDS011;6651;53.200;10.432;2024-02-26T03:25:37;2.30;;;2.10;;
13171;SDS011;6651;53.200;10.432;2024-02-26T03:28:03;2.28;;;2.08;;
13171;SDS011;6651;53.200;10.432;2024-02-26T03:30:30;4.15;;;2.15;;
13171;SDS011;6651;53.200;10.432;2024-02-26T03:32:56;2.25;;;2.05;;
13171;SDS011;6651;53.200;10.432;2024-02-26T03:35:22;3.00;;;2.08;;
13171;SDS011;6651;53.200;10.432;2024-02-26T03:37:48;4.03;;;2.20;;
13171;SDS011;6651;53.200;10.432;2024-02-26T03:40:16;3.38;;;2.28;;
13171;SDS011;6651;53.200;10.432;2024-02-26T03:42:44;4.85;;;2.20;;
13171;SDS011;6651;53.200;10.432;2024-02-26T03:45:10;2.55;;;2.05;;
13171;SDS011;6651;53.200;10.432;2024-02-26T03:47:37;2.42;;;2.15;;
13171;SDS011;6651;53.200;10.432;2024-02-26T03:50:05;2.58;;;2.10;;
13171;SDS011;6651;53.200;10.432;2024-02-26T03:52:32;2.63;;;2.17;;
13171;SDS011;6651;53.200;10.432;2024-02-26T03:54:58;3.78;;;2.30;;
13171;SDS011;6651;53.200;10.432;2024-02-26T03:57:24;3.10;;;2.15;;
13171;SDS011;6651;53.200;10.432;2024-02-26T03:59:50;3.67;;;2.10;;
13171;SDS011;6651;53.200;10.432;2024-02-26T04:02:16;2.15;;;1.92;;
13171;SDS011;6651;53.200;10.432;2024-02-26T04:04:44;3.33;;;2.40;;
13171;SDS011;6651;53.200;10.432;2024-02-26T04:07:10;2.60;;;2.10;;
13171;SDS011;6651;53.200;10.432;2024-02-26T04:09:36;3.33;;;2.20;;
13171;SDS011;6651;53.200;10.432;2024-02-26T04:12:03;2.55;;;2.22;;
13171;SDS011;6651;53.200;10.432;2024-02-26T04:14:29;2.63;;;2.25;;
13171;SDS011;6651;53.200;10.432;2024-02-26T04:16:55;2.72;;;2.17;;
13171;SDS011;6651;53.200;10.432;2024-02-26T04:19:21;3.42;;;2.20;;
13171;SDS011;6651;53.200;10.432;2024-02-26T04:21:47;4.07;;;2.50;;
13171;SDS011;6651;53.200;10.432;2024-02-26T04:24:13;3.92;;;2.45;;
13171;SDS011;6651;53.200;10.432;2024-02-26T04:26:39;2.78;;;2.22;;
13171;SDS011;6651;53.200;10.432;2024-02-26T04:29:05;3.65;;;2.30;;
13171;SDS011;6651;53.200;10.432;2024-02-26T04:31:31;2.88;;;2.30;;
13171;SDS011;6651;53.200;10.432;2024-02-26T04:33:58;3.20;;;2.00;;
13171;SDS011;6651;53.200;10.432;2024-02-26T04:36:24;3.33;;;2.47;;
13171;SDS011;6651;53.200;10.432;2024-02-26T04:38:51;3.47;;;2.08;;
13171;SDS011;6651;53.200;10.432;2024-02-26T04:41:19;2.97;;;2.22;;
13171;SDS011;6651;53.200;10.432;2024-02-26T04:43:45;3.15;;;2.15;;
13171;SDS011;6651;53.200;10.432;2024-02-26T04:46:11;2.75;;;2.13;;
13171;SDS011;6651;53.200;10.432;2024-02-26T04:48:37;3.05;;;2.08;;
13171;SDS011;6651;53.200;10.432;2024-02-26T04:51:04;3.83;;;2.20;;
13171;SDS011;6651;53.200;10.432;2024-02-26T04:53:30;3.17;;;2.30;;
13171;SDS011;6651;53.200;10.432;2024-02-26T04:55:56;4.13;;;2.45;;
13171;SDS011;6651;53.200;10.432;2024-02-26T04:58:22;3.15;;;2.40;;
13171;SDS011;6651;53.200;10.432;2024-02-26T05:00:48;2.67;;;2.05;;
13171;SDS011;6651;53.200;10.432;2024-02-26T05:03:15;2.97;;;2.40;;
13171;SDS011;6651;53.200;10.432;2024-02-26T05:05:44;3.30;;;2.13;;
13171;SDS011;6651;53.200;10.432;2024-02-26T05:08:10;2.50;;;2.15;;
13171;SDS011;6651;53.200;10.432;2024-02-26T05:10:37;4.15;;;2.30;;
13171;SDS011;6651;53.200;10.432;2024-02-26T05:13:06;3.17;;;2.25;;
13171;SDS011;6651;53.200;10.432;2024-02-26T05:15:32;2.28;;;1.92;;
13171;SDS011;6651;53.200;10.432;2024-02-26T05:17:58;2.83;;;2.25;;
13171;SDS011;6651;53.200;10.432;2024-02-26T05:20:24;3.58;;;2.50;;
13171;SDS011;6651;53.200;10.432;2024-02-26T05:22:50;2.65;;;2.08;;
13171;SDS011;6651;53.200;10.432;2024-02-26T05:25:16;3.15;;;2.30;;
13171;SDS011;6651;53.200;10.432;2024-02-26T05:27:45;2.97;;;2.30;;
13171;SDS011;6651;53.200;10.432;2024-02-26T05:30:11;2.58;;;2.38;;
13171;SDS011;6651;53.200;10.432;2024-02-26T05:32:37;3.70;;;2.40;;
13171;SDS011;6651;53.200;10.432;2024-02-26T05:35:03;2.97;;;2.40;;
13171;SDS011;6651;53.200;10.432;2024-02-26T05:37:30;4.47;;;2.70;;
13171;SDS011;6651;53.200;10.432;2024-02-26T05:39:56;2.72;;;2.47;;
13171;SDS011;6651;53.200;10.432;2024-02-26T05:42:22;3.75;;;2.70;;
13171;SDS011;6651;53.200;10.432;2024-02-26T05:44:47;2.60;;;2.40;;
13171;SDS011;6651;53.200;10.432;2024-02-26T05:47:14;2.75;;;2.38;;
13171;SDS011;6651;53.200;10.432;2024-02-26T05:49:40;2.72;;;2.50;;
13171;SDS011;6651;53.200;10.432;2024-02-26T05:52:06;2.92;;;2.45;;
13171;SDS011;6651;53.200;10.432;2024-02-26T05:54:32;2.70;;;2.50;;
13171;SDS011;6651;53.200;10.432;2024-02-26T05:56:58;3.95;;;2.70;;
13171;SDS011;6651;53.200;10.432;2024-02-26T05:59:24;3.20;;;2.30;;
13171;SDS011;6651;53.200;10.432;2024-02-26T06:01:50;3.17;;;2.70;;
13171;SDS011;6651;53.200;10.432;2024-02-26T06:04:16;3.60;;;2.60;;
13171;SDS011;6651;53.200;10.432;2024-02-26T06:06:43;4.20;;;2.67;;
13171;SDS011;6651;53.200;10.432;2024-02-26T06:09:10;3.53;;;2.40;;
13171;SDS011;6651;53.200;10.432;2024-02-26T06:11:36;2.75;;;2.50;;
13171;SDS011;6651;53.200;10.432;2024-02-26T06:14:02;3.78;;;2.70;;
13171;SDS011;6651;53.200;10.432;2024-02-26T06:16:28;3.38;;;2.50;;
13171;SDS011;6651;53.200;10.432;2024-02-26T06:18:54;3.13;;;2.72;;
13171;SDS011;6651;53.200;10.432;2024-02-26T06:21:21;3.40;;;2.75;;
13171;SDS011;6651;53.200;10.432;2024-02-26T06:23:47;3.80;;;2.67;;
13171;SDS011;6651;53.200;10.432;2024-02-26T06:26:14;3.70;;;3.00;;
13171;SDS011;6651;53.200;10.432;2024-02-26T06:28:40;4.03;;;3.00;;
13171;SDS011;6651;53.200;10.432;2024-02-26T06:31:06;4.38;;;2.95;;
13171;SDS011;6651;53.200;10.432;2024-02-26T06:33:32;3.50;;;3.00;;
13171;SDS011;6651;53.200;10.432;2024-02-26T06:35:58;4.22;;;3.13;;
13171;SDS011;6651;53.200;10.432;2024-02-26T06:38:24;3.70;;;3.00;;
13171;SDS011;6651;53.200;10.432;2024-02-26T06:40:50;5.13;;;3.13;;
13171;SDS011;6651;53.200;10.432;2024-02-26T06:43:16;4.13;;;3.20;;
13171;SDS011;6651;53.200;10.432;2024-02-26T06:45:42;5.03;;;3.17;;
13171;SDS011;6651;53.200;10.432;2024-02-26T06:48:08;3.58;;;3.00;;
13171;SDS011;6651;53.200;10.432;2024-02-26T06:50:34;4.18;;;3.30;;
13171;SDS011;6651;53.200;10.432;2024-02-26T06:53:00;4.82;;;4.00;;
13171;SDS011;6651;53.200;10.432;2024-02-26T06:55:26;4.20;;;3.60;;
13171;SDS011;6651;53.200;10.432;2024-02-26T06:57:52;4.65;;;3.88;;
13171;SDS011;6651;53.200;10.432;2024-02-26T07:00:19;5.00;;;3.92;;
13171;SDS011;6651;53.200;10.432;2024-02-26T07:02:45;5.35;;;4.28;;
13171;SDS011;6651;53.200;10.432;2024-02-26T07:05:10;6.93;;;4.63;;
13171;SDS011;6651;53.200;10.432;2024-02-26T07:07:37;5.63;;;4.55;;
13171;SDS011;6651;53.200;10.432;2024-02-26T07:10:03;5.60;;;4.07;;
13171;SDS011;6651;53.200;10.432;2024-02-26T07:12:30;4.88;;;4.10;;
13171;SDS011;6651;53.200;10.432;2024-02-26T07:14:56;4.88;;;3.78;;
13171;SDS011;6651;53.200;10.432;2024-02-26T07:17:23;6.30;;;3.95;;
13171;SDS011;6651;53.200;10.432;2024-02-26T07:19:49;5.18;;;3.78;;
13171;SDS011;6651;53.200;10.432;2024-02-26T07:22:15;5.97;;;4.15;;
13171;SDS011;6651;53.200;10.432;2024-02-26T07:24:41;5.53;;;4.07;;
13171;SDS011;6651;53.200;10.432;2024-02-26T07:27:07;6.22;;;4.50;;
13171;SDS011;6651;53.200;10.432;2024-02-26T07:29:33;6.35;;;4.90;;
13171;SDS011;6651;53.200;10.432;2024-02-26T07:31:59;6.60;;;4.95;;
13171;SDS011;6651;53.200;10.432;2024-02-26T07:34:25;6.28;;;4.57;;
13171;SDS011;6651;53.200;10.432;2024-02-26T07:36:54;6.22;;;5.03;;
13171;SDS011;6651;53.200;10.432;2024-02-26T07:39:20;6.22;;;4.70;;
13171;SDS011;6651;53.200;10.432;2024-02-26T07:41:46;5.45;;;4.70;;
13171;SDS011;6651;53.200;10.432;2024-02-26T07:44:14;8.13;;;5.13;;
13171;SDS011;6651;53.200;10.432;2024-02-26T07:46:40;7.20;;;5.40;;
13171;SDS011;6651;53.200;10.432;2024-02-26T07:49:06;6.75;;;5.50;;
13171;SDS011;6651;53.200;10.432;2024-02-26T07:51:33;7.68;;;5.35;;
13171;SDS011;6651;53.200;10.432;2024-02-26T07:53:59;7.03;;;5.03;;
13171;SDS011;6651;53.200;10.432;2024-02-26T07:56:26;7.85;;;6.00;;
13171;SDS011;6651;53.200;10.432;2024-02-26T07:58:52;6.65;;;5.13;;
13171;SDS011;6651;53.200;10.432;2024-02-26T08:01:18;6.57;;;5.53;;
13171;SDS011;6651;53.200;10.432;2024-02-26T08:03:44;7.03;;;5.20;;
13171;SDS011;6651;53.200;10.432;2024-02-26T08:06:10;6.82;;;5.50;;
13171;SDS011;6651;53.200;10.432;2024-02-26T08:08:36;6.53;;;5.45;;
13171;SDS011;6651;53.200;10.432;2024-02-26T08:11:02;6.55;;;5.50;;
13171;SDS011;6651;53.200;10.432;2024-02-26T08:13:28;7.55;;;5.95;;
13171;SDS011;6651;53.200;10.432;2024-02-26T08:15:54;6.05;;;5.40;;
13171;SDS011;6651;53.200;10.432;2024-02-26T08:18:20;8.35;;;5.78;;
13171;SDS011;6651;53.200;10.432;2024-02-26T08:20:46;7.65;;;5.85;;
13171;SDS011;6651;53.200;10.432;2024-02-26T08:23:13;8.00;;;5.70;;
13171;SDS011;6651;53.200;10.432;2024-02-26T08:25:40;7.47;;;5.55;;
13171;SDS011;6651;53.200;10.432;2024-02-26T08:28:06;7.68;;;6.00;;
13171;SDS011;6651;53.200;10.432;2024-02-26T08:30:32;6.93;;;5.88;;
13171;SDS011;6651;53.200;10.432;2024-02-26T08:32:59;7.65;;;6.00;;
13171;SDS011;6651;53.200;10.432;2024-02-26T08:35:25;6.20;;;5.57;;
13171;SDS011;6651;53.200;10.432;2024-02-26T08:37:51;6.68;;;5.53;;
13171;SDS011;6651;53.200;10.432;2024-02-26T08:40:17;6.47;;;5.82;;
13171;SDS011;6651;53.200;10.432;2024-02-26T08:42:44;7.97;;;5.60;;
13171;SDS011;6651;53.200;10.432;2024-02-26T08:45:10;10.98;;;6.07;;
13171;SDS011;6651;53.200;10.432;2024-02-26T08:47:37;7.00;;;6.30;;
13171;SDS011;6651;53.200;10.432;2024-02-26T08:50:04;8.45;;;6.15;;
13171;SDS011;6651;53.200;10.432;2024-02-26T08:52:30;8.55;;;7.18;;
13171;SDS011;6651;53.200;10.432;2024-02-26T08:54:56;6.80;;;6.05;;
13171;SDS011;6651;53.200;10.432;2024-02-26T08:57:22;11.75;;;7.13;;
13171;SDS011;6651;53.200;10.432;2024-02-26T08:59:48;8.02;;;7.22;;
13171;SDS011;6651;53.200;10.432;2024-02-26T09:02:14;7.95;;;6.97;;
13171;SDS011;6651;53.200;10.432;2024-02-26T09:04:40;7.88;;;6.82;;
13171;SDS011;6651;53.200;10.432;2024-02-26T09:07:06;7.68;;;6.72;;
13171;SDS011;6651;53.200;10.432;2024-02-26T09:09:32;6.68;;;5.95;;
13171;SDS011;6651;53.200;10.432;2024-02-26T09:11:58;9.13;;;7.40;;
13171;SDS011;6651;53.200;10.432;2024-02-26T09:14:24;8.38;;;7.20;;
13171;SDS011;6651;53.200;10.432;2024-02-26T09:16:50;8.63;;;7.10;;
13171;SDS011;6651;53.200;10.432;2024-02-26T09:19:17;8.45;;;7.55;;
13171;SDS011;6651;53.200;10.432;2024-02-26T09:21:43;8.73;;;7.82;;
13171;SDS011;6651;53.200;10.432;2024-02-26T09:24:10;8.52;;;7.63;;
13171;SDS011;6651;53.200;10.432;2024-02-26T09:26:36;9.05;;;7.60;;
13171;SDS011;6651;53.200;10.432;2024-02-26T09:29:02;8.43;;;7.55;;
13171;SDS011;6651;53.200;10.432;2024-02-26T09:31:29;8.20;;;7.40;;
13171;SDS011;6651;53.200;10.432;2024-02-26T09:33:55;8.07;;;6.80;;
13171;SDS011;6651;53.200;10.432;2024-02-26T09:36:21;7.50;;;6.70;;
13171;SDS011;6651;53.200;10.432;2024-02-26T09:38:47;8.02;;;6.88;;
13171;SDS011;6651;53.200;10.432;2024-02-26T09:41:16;8.02;;;6.93;;
13171;SDS011;6651;53.200;10.432;2024-02-26T09:43:44;7.95;;;7.15;;
13171;SDS011;6651;53.200;10.432;2024-02-26T09:46:13;7.47;;;6.68;;
13171;SDS011;6651;53.200;10.432;2024-02-26T09:48:40;7.20;;;6.40;;
13171;SDS011;6651;53.200;10.432;2024-02-26T09:51:08;7.25;;;6.55;;
13171;SDS011;6651;53.200;10.432;2024-02-26T09:53:36;7.15;;;6.45;;
13171;SDS011;6651;53.200;10.432;2024-02-26T09:56:07;6.95;;;6.25;;
13171;SDS011;6651;53.200;10.432;2024-02-26T09:58:33;7.82;;;6.38;;
13171;SDS011;6651;53.200;10.432;2024-02-26T10:01:00;6.97;;;6.03;;
13171;SDS011;6651;53.200;10.432;2024-02-26T10:03:31;6.95;;;6.10;;
13171;SDS011;6651;53.200;10.432;2024-02-26T10:06:00;6.60;;;5.90;;
13171;SDS011;6651;53.200;10.432;2024-02-26T10:08:29;8.02;;;6.45;;
13171;SDS011;6651;53.200;10.432;2024-02-26T10:10:55;7.38;;;6.13;;
13171;SDS011;6651;53.200;10.432;2024-02-26T10:13:22;7.13;;;5.70;;
13171;SDS011;6651;53.200;10.432;2024-02-26T10:15:48;6.43;;;5.72;;
13171;SDS011;6651;53.200;10.432;2024-02-26T10:18:14;8.43;;;6.30;;
13171;SDS011;6651;53.200;10.432;2024-02-26T10:20:40;6.90;;;6.20;;
13171;SDS011;6651;53.200;10.432;2024-02-26T10:23:06;7.10;;;6.05;;
13171;SDS011;6651;53.200;10.432;2024-02-26T10:25:32;7.22;;;6.18;;
13171;SDS011;6651;53.200;10.432;2024-02-26T10:27:59;7.00;;;6.05;;
13171;SDS011;6651;53.200;10.432;2024-02-26T10:30:28;8.63;;;5.93;;
13171;SDS011;6651;53.200;10.432;2024-02-26T10:32:55;6.70;;;5.60;;
13171;SDS011;6651;53.200;10.432;2024-02-26T10:35:21;6.65;;;5.60;;
13171;SDS011;6651;53.200;10.432;2024-02-26T10:37:48;6.63;;;5.40;;
13171;SDS011;6651;53.200;10.432;2024-02-26T10:40:14;7.07;;;5.28;;
13171;SDS011;6651;53.200;10.432;2024-02-26T10:42:41;5.32;;;4.55;;
13171;SDS011;6651;53.200;10.432;2024-02-26T10:45:08;5.68;;;5.05;;
13171;SDS011;6651;53.200;10.432;2024-02-26T10:47:35;6.45;;;4.70;;
13171;SDS011;6651;53.200;10.432;2024-02-26T10:50:05;6.53;;;4.13;;
13171;SDS011;6651;53.200;10.432;2024-02-26T10:52:32;4.97;;;3.88;;
13171;SDS011;6651;53.200;10.432;2024-02-26T10:55:00;4.07;;;3.67;;
13171;SDS011;6651;53.200;10.432;2024-02-26T10:57:27;4.55;;;3.70;;
13171;SDS011;6651;53.200;10.432;2024-02-26T10:59:57;4.05;;;3.55;;
13171;SDS011;6651;53.200;10.432;2024-02-26T11:02:23;3.80;;;3.40;;
13171;SDS011;6651;53.200;10.432;2024-02-26T11:04:49;4.35;;;3.20;;
13171;SDS011;6651;53.200;10.432;2024-02-26T11:07:15;4.20;;;3.30;;
13171;SDS011;6651;53.200;10.432;2024-02-26T11:09:42;3.60;;;3.30;;
13171;SDS011;6651;53.200;10.432;2024-02-26T11:12:11;3.33;;;3.03;;
13171;SDS011;6651;53.200;10.432;2024-02-26T11:14:38;3.58;;;3.20;;
13171;SDS011;6651;53.200;10.432;2024-02-26T11:17:06;3.65;;;2.90;;
13171;SDS011;6651;53.200;10.432;2024-02-26T11:19:33;4.35;;;3.10;;
13171;SDS011;6651;53.200;10.432;2024-02-26T11:22:01;4.00;;;3.10;;
13171;SDS011;6651;53.200;10.432;2024-02-26T11:24:27;3.42;;;2.92;;
13171;SDS011;6651;53.200;10.432;2024-02-26T11:26:54;3.00;;;2.70;;
13171;SDS011;6651;53.200;10.432;2024-02-26T11:29:24;3.70;;;2.88;;
13171;SDS011;6651;53.200;10.432;2024-02-26T11:31:52;3.10;;;2.80;;
13171;SDS011;6651;53.200;10.432;2024-02-26T11:34:18;3.63;;;2.83;;
13171;SDS011;6651;53.200;10.432;2024-02-26T11:36:45;2.65;;;2.42;;
13171;SDS011;6651;53.200;10.432;2024-02-26T11:39:11;3.67;;;2.42;;
13171;SDS011;6651;53.200;10.432;2024-02-26T11:41:38;3.20;;;2.80;;
13171;SDS011;6651;53.200;10.432;2024-02-26T11:44:04;3.28;;;2.85;;
13171;SDS011;6651;53.200;10.432;2024-02-26T11:46:39;2.70;;;2.50;;
13171;SDS011;6651;53.200;10.432;2024-02-26T11:51:51;3.65;;;2.85;;
13171;SDS011;6651;53.200;10.432;2024-02-26T11:57:02;3.05;;;2.70;;
13171;SDS011;6651;53.200;10.432;2024-02-26T11:59:37;3.38;;;2.63;;
13171;SDS011;6651;53.200;10.432;2024-02-26T12:02:03;3.13;;;2.65;;
13171;SDS011;6651;53.200;10.432;2024-02-26T12:04:30;3.78;;;2.97;;
13171;SDS011;6651;53.200;10.432;2024-02-26T12:06:57;6.03;;;2.90;;
13171;SDS011;6651;53.200;10.432;2024-02-26T12:09:33;3.50;;;2.70;;
13171;SDS011;6651;53.200;10.432;2024-02-26T12:12:02;2.92;;;2.63;;
13171;SDS011;6651;53.200;10.432;2024-02-26T12:14:29;2.67;;;2.47;;
13171;SDS011;6651;53.200;10.432;2024-02-26T12:16:55;3.00;;;2.70;;
13171;SDS011;6651;53.200;10.432;2024-02-26T12:19:23;3.20;;;2.90;;
13171;SDS011;6651;53.200;10.432;2024-02-26T12:21:51;3.10;;;2.80;;
13171;SDS011;6651;53.200;10.432;2024-02-26T12:24:18;4.50;;;2.83;;
13171;SDS011;6651;53.200;10.432;2024-02-26T12:26:45;3.38;;;2.72;;
13171;SDS011;6651;53.200;10.432;2024-02-26T12:29:12;3.10;;;2.80;;
13171;SDS011;6651;53.200;10.432;2024-02-26T12:31:38;3.45;;;2.78;;
13171;SDS011;6651;53.200;10.432;2024-02-26T12:34:06;3.20;;;2.90;;
13171;SDS011;6651;53.200;10.432;2024-02-26T12:36:33;3.08;;;2.78;;
13171;SDS011;6651;53.200;10.432;2024-02-26T12:39:00;3.53;;;3.00;;
13171;SDS011;6651;53.200;10.432;2024-02-26T12:41:27;3.30;;;2.60;;
13171;SDS011;6651;53.200;10.432;2024-02-26T12:43:55;4.93;;;2.80;;
13171;SDS011;6651;53.200;10.432;2024-02-26T12:46:21;3.33;;;2.65;;
13171;SDS011;6651;53.200;10.432;2024-02-26T12:48:47;3.17;;;2.65;;
13171;SDS011;6651;53.200;10.432;2024-02-26T12:51:14;2.97;;;2.67;;
13171;SDS011;6651;53.200;10.432;2024-02-26T12:53:40;3.17;;;2.40;;
13171;SDS011;6651;53.200;10.432;2024-02-26T12:56:09;2.92;;;2.60;;
13171;SDS011;6651;53.200;10.432;2024-02-26T12:58:37;3.38;;;2.58;;
13171;SDS011;6651;53.200;10.432;2024-02-26T13:01:05;3.00;;;2.67;;
13171;SDS011;6651;53.200;10.432;2024-02-26T13:03:31;3.10;;;2.30;;
13171;SDS011;6651;53.200;10.432;2024-02-26T13:05:58;2.58;;;2.38;;
13171;SDS011;6651;53.200;10.432;2024-02-26T13:08:24;2.58;;;2.38;;
13171;SDS011;6651;53.200;10.432;2024-02-26T13:10:50;2.05;;;1.95;;
13171;SDS011;6651;53.200;10.432;2024-02-26T13:13:17;2.50;;;2.30;;
13171;SDS011;6651;53.200;10.432;2024-02-26T13:15:44;2.47;;;2.13;;
13171;SDS011;6651;53.200;10.432;2024-02-26T13:18:11;2.78;;;2.20;;
13171;SDS011;6651;53.200;10.432;2024-02-26T13:20:37;3.53;;;2.08;;
13171;SDS011;6651;53.200;10.432;2024-02-26T13:23:06;2.67;;;2.20;;
13171;SDS011;6651;53.200;10.432;2024-02-26T13:25:32;3.00;;;1.90;;
13171;SDS011;6651;53.200;10.432;2024-02-26T13:28:08;2.28;;;2.10;;
13171;SDS011;6651;53.200;10.432;2024-02-26T13:30:35;3.05;;;2.10;;
13171;SDS011;6651;53.200;10.432;2024-02-26T13:33:11;2.50;;;2.30;;
13171;SDS011;6651;53.200;10.432;2024-02-26T13:35:37;2.85;;;2.20;;
13171;SDS011;6651;53.200;10.432;2024-02-26T13:38:04;3.25;;;2.05;;
13171;SDS011;6651;53.200;10.432;2024-02-26T13:40:31;3.45;;;2.40;;
13171;SDS011;6651;53.200;10.432;2024-02-26T13:42:57;2.65;;;2.33;;
13171;SDS011;6651;53.200;10.432;2024-02-26T13:45:23;2.88;;;2.30;;
13171;SDS011;6651;53.200;10.432;2024-02-26T13:47:49;2.53;;;2.30;;
13171;SDS011;6651;53.200;10.432;2024-02-26T13:50:15;2.53;;;2.30;;
13171;SDS011;6651;53.200;10.432;2024-02-26T13:52:41;2.65;;;2.30;;
13171;SDS011;6651;53.200;10.432;2024-02-26T13:55:08;2.03;;;1.92;;
13171;SDS011;6651;53.200;10.432;2024-02-26T13:57:34;3.88;;;2.33;;
13171;SDS011;6651;53.200;10.432;2024-02-26T14:00:00;2.20;;;2.10;;
13171;SDS011;6651;53.200;10.432;2024-02-26T14:02:26;2.58;;;1.90;;
13171;SDS011;6651;53.200;10.432;2024-02-26T14:04:52;3.65;;;2.30;;
13171;SDS011;6651;53.200;10.432;2024-02-26T14:07:18;3.60;;;2.22;;
13171;SDS011;6651;53.200;10.432;2024-02-26T14:09:44;3.88;;;2.30;;
13171;SDS011;6651;53.200;10.432;2024-02-26T14:12:10;3.28;;;2.33;;
13171;SDS011;6651;53.200;10.432;2024-02-26T14:14:36;3.88;;;2.42;;
13171;SDS011;6651;53.200;10.432;2024-02-26T14:17:04;3.58;;;2.60;;
13171;SDS011;6651;53.200;10.432;2024-02-26T14:19:30;3.15;;;2.50;;
13171;SDS011;6651;53.200;10.432;2024-02-26T14:21:56;2.63;;;2.40;;
13171;SDS011;6651;53.200;10.432;2024-02-26T14:24:22;2.30;;;2.10;;
13171;SDS011;6651;53.200;10.432;2024-02-26T14:26:48;2.60;;;2.40;;
13171;SDS011;6651;53.200;10.432;2024-02-26T14:29:14;3.20;;;2.40;;
13171;SDS011;6651;53.200;10.432;2024-02-26T14:31:41;4.80;;;3.08;;
13171;SDS011;6651;53.200;10.432;2024-02-26T14:34:07;4.53;;;2.90;;
13171;SDS011;6651;53.200;10.432;2024-02-26T14:36:34;4.18;;;3.20;;
13171;SDS011;6651;53.200;10.432;2024-02-26T14:39:00;5.15;;;3.50;;
13171;SDS011;6651;53.200;10.432;2024-02-26T14:41:26;3.40;;;3.10;;
13171;SDS011;6651;53.200;10.432;2024-02-26T14:43:52;3.67;;;3.00;;
13171;SDS011;6651;53.200;10.432;2024-02-26T14:46:18;3.70;;;3.33;;
13171;SDS011;6651;53.200;10.432;2024-02-26T14:48:44;3.83;;;3.42;;